UBBBUBBG

Guest
Details From UBBB - HEYDAR ALIYEV
To UBBG - GANJA
Flight Number -
Tags generated
Created
Modified
Stats Distance 171 nm / 317 km
Max Altitude 20,200 ft / 6,157 m
Waypoints 3
Social Downloads 5
Likes 0
Share VATSIM

Download

Looking for another format? Having issues loading an existing format? Contact us
Advertisement - Login to hide

Notes

Basic altitude profile: - Ascent Rate: 16000ft/min - Ascent Speed: 348kts - Cruise Altitude: 19000ft - Cruise Speed: 420kts - Descent Rate: 25000ft/min - Descent Speed: 267kts Options: - Use NATs: yes - Use PACOTS: yes - Use low airways: yes - Use high airways: yes

Route

UBBB AU UBBG

ID Type Via Altitude Latitude Longitude Leg Dist Tot Dist Heading (true) Name
O UBBB APT - 0 ft / 0 m 40.47000˚ 50.05208˚ - 0 nm - HEYDAR ALIYEV
AU NDB - 20,200 ft / 6,157 m 40.56667˚ 48.38333˚ 76 nm 76 nm 275° / 274° AKHSU NDB
O UBBG APT - 0 ft / 0 m 40.73768˚ 46.31758˚ 94 nm 171 nm 277° / 276° GANJA

Altitude Profile

Advertisement - Login to hide

Weather


0- 5 10 15 20 25 30 35+ Temperature / ° C

Clouds and Precipitation
Forecast for 2017-12-11 18:00 UTC. Updated 5 minutes ago

Ground ~20,000 ft ~40,000 ft Winds

UBBB

Details ICAO UBBB (GYD)
Name HEYDAR ALIYEV
Region Azerbiajan
Timezone Asia/Baku (UTC+4.0)
Stats Elevation 10 ft / 3 m (AMSL)
Location 40.470000° 50.052083°
Runways 2
Magnetic Variation 6.234° E

METAR

UBBB 111500Z 32029KT 9999 BKN010 OVC030 09/06 Q1025 R88/CLRD// NOSIG

Decode

TAF

TAF AMD UBBB 111252Z 1112/1212 33024G34KT 9999 SCT012 BKN030 TX09/1113Z TN06/1202Z TEMPO 1113/1124 34030G40KT -SHRA SCT025CB OVC025 BECMG 1200/1202 36012KT BKN100 TEMPO 1202/1206 VRB04KT SCT025 BECMG 1206/1208 15008KT SCT080

Decode

Departure Runways

ID Width Length Bearing (true) Bearing (mag) Surface Threshold Offset Overrun Length
16 197 ft / 60 m 9,110 ft / 2,777 m 159.17° 152.94° Asphalt 0 ft / 0 m 1,312 ft / 400 m
18 167 ft / 51 m 10,947 ft / 3,337 m 180.00° 173.77° Concrete 0 ft / 0 m 1,312 ft / 400 m
34 197 ft / 60 m 9,110 ft / 2,777 m 339.18° 332.95° Asphalt 0 ft / 0 m 656 ft / 200 m
36 167 ft / 51 m 10,947 ft / 3,337 m 0.00° 353.77° Concrete 444 ft / 135 m 541 ft / 165 m

UBBG

Details ICAO UBBG (KVD)
Name GANJA
Region Azerbiajan
Timezone Asia/Baku (UTC+4.0)
Stats Elevation 1,083 ft / 330 m (AMSL)
Location 40.737676° 46.317582°
Runways 1
Magnetic Variation 6.372° E

METAR

UBBG 111500Z 30008KT 9999 SCT100 08/00 Q1022 R30/CLRD// NOSIG

Decode

TAF

TAF UBBG 111100Z 1112/1212 31020KT 9999 FEW040 BKN100 TX11/1112Z TNM00/1203Z TEMPO 1115/1124 28010KT BECMG 1200/1202 24008KT

Decode

Destination Runways

ID Width Length Bearing (true) Bearing (mag) Surface Threshold Offset Overrun Length
12 144 ft / 44 m 8,211 ft / 2,503 m 128.25° 121.88° Concrete 0 ft / 0 m 0 ft / 0 m
30 144 ft / 44 m 8,211 ft / 2,503 m 308.26° 301.89° Concrete 0 ft / 0 m 1,630 ft / 497 m

Popular Alternatives